Aviation Digital Data Service (ADDS)

Output produced by METARs form (0716 UTC 18 April 2015)
found at http://www.aviationweather.gov/adds/metars/
 
KTHV 180653Z AUTO 00000KT 5SM BR CLR 08/07 A2999 RMK AO2 SLP158 T00780067
KTHV 180553Z AUTO 00000KT 5SM BR CLR 08/07 A3000 RMK AO2 SLP161 T00780072 10194 20078 50003
KTHV 180453Z AUTO 00000KT 7SM CLR 08/07 A3001 RMK AO2 SLP162 T00830072 402390083
KTHV 180353Z AUTO 00000KT 6SM BR CLR 09/08 A3000 RMK AO2 SLP161 T00890083
KTHV 180253Z AUTO 00000KT 7SM CLR 11/09 A2999 RMK AO2 SLP157 T01110094 51010
KTHV 180153Z AUTO 00000KT 9SM CLR 12/10 A2999 RMK AO2 SLP159 T01170100
KTHV 180053Z AUTO 00000KT 9SM CLR 13/11 A2998 RMK AO2 SLP154 T01330106
KTHV 172353Z AUTO 34003KT 10SM FEW050 19/12 A2996 RMK AO2 SLP147 T01940117 10239 20194 53006
KTHV 172253Z AUTO 31005KT 10SM FEW080 22/12 A2994 RMK AO2 SLP140 T02170122
KTHV 172153Z AUTO 31010KT 10SM SCT060 OVC075 23/12 A2994 RMK AO2 SLP138 T02280117
KTHV 172053Z AUTO 29006KT 10SM SCT060 BKN075 23/13 A2994 RMK AO2 SLP140 T02280133 58021
KTHV 171953Z AUTO VRB03KT 10SM FEW041 FEW070 OVC090 23/14 A2997 RMK AO2 SLP147 T02330144
KTHV 171853Z AUTO 32006KT 9SM FEW033 SCT043 BKN080 22/14 A2999 RMK AO2 SLP155 T02220144
KTHV 171753Z AUTO 10SM SCT032 BKN080 22/14 A3001 RMK AO2 SLP161 T02170139 10217 20139 58019
KTHV 171653Z AUTO 28007KT 10SM FEW031 BKN075 OVC110 20/13 A3003 RMK AO2 SLP168 T02000133
KTHV 171553Z AUTO 28007KT 260V320 10SM FEW031 BKN110 19/13 A3004 RMK AO2 SLP173 T01940133
KTHV 171453Z AUTO 27007KT 10SM BKN037 OVC048 17/13 A3006 RMK AO2 SLP182 T01720128 56013
KTHV 171353Z AUTO 23004KT 10SM OVC034 16/12 A3008 RMK AO2 SLP186 T01610122
KTHV 171253Z AUTO VRB03KT 10SM SCT039 BKN048 OVC110 14/12 A3009 RMK AO2 SLP190 T01440117
KTHV 171153Z AUTO 20004KT 10SM BKN041 OVC050 14/12 A3010 RMK AO2 SLP195 60001 70007 T01390117 10139 20128 55006
KTHV 171053Z AUTO 00000KT 10SM BKN043 OVC060 13/12 A3010 RMK AO2 SLP195 T01330117
KTHV 170953Z AUTO 21007KT 10SM OVC050 13/12 A3011 RMK AO2 SLP196 T01330117
KTHV 170853Z AUTO 19004KT 10SM SCT011 BKN044 OVC055 13/12 A3012 RMK AO2 SLP201 60001 T01280117 56022
KTHV 170831Z AUTO VRB05KT 10SM SCT012 BKN034 OVC044 13/12 A3012 RMK AO2 T01280117
KTHV 170809Z AUTO VRB05KT 9SM BKN013 OVC041 13/12 A3013 RMK AO2 T01280117
KTHV 170753Z AUTO 19004KT 9SM SCT013 BKN036 OVC045 13/12 A3013 RMK AO2 SLP205 T01280117
KTHV 170653Z AUTO 20005KT 10SM OVC050 13/11 A3016 RMK AO2 RAE46 SLP213 P0001 T01280111
KTHV 170553Z AUTO 20004KT 10SM -RA FEW036 BKN065 OVC090 13/11 A3019 RMK AO2 SLP223 P0002 60006 T01280106 10178 20128 58017
KTHV 170453Z AUTO 19003KT 8SM -RA OVC060 14/11 A3021 RMK AO2 SLP231 P0004 T01390106 402110006
KTHV 170353Z AUTO 19005KT 10SM -RA OVC070 16/09 A3022 RMK AO2 RAB31 SLP234 P0000 T01560089
KTHV 170253Z AUTO VRB06KT 10SM OVC080 16/07 A3024 RMK AO2 RAB36E49 SLP241 P0000 60000 T01610072 57002
KTHV 170153Z AUTO 19006KT 10SM OVC080 17/06 A3024 RMK AO2 SLP242 T01720061
KTHV 170053Z AUTO 16008KT 120V200 10SM OVC100 17/06 A3024 RMK AO2 SLP242 T01720056
KTHV 162353Z AUTO 17006KT 10SM OVC095 18/04 A3024 RMK AO2 SLP244 T01780039 10211 20178 56010
KTHV 162253Z AUTO 15007KT 10SM FEW110 18/03 A3025 RMK AO2 SLP246 T01830033
KTHV 162153Z AUTO 15010G18KT 10SM CLR 19/00 A3027 RMK AO2 SLP252 T01940000
KTHV 162053Z AUTO 16008KT 130V190 10SM CLR 20/M02 A3028 RMK AO2 SLP256 T02001017 58027
KTHV 161953Z AUTO 18004KT 10SM CLR 20/M02 A3030 RMK AO2 SLP264 T02001017